sensor_id;sensor_type;location;lat;lon;timestamp;P1;durP1;ratioP1;P2;durP2;ratioP2
40959;SDS011;27842;52.272;8.052;2022-11-15T00:01:17;20.98;;;11.05;;
40959;SDS011;27842;52.272;8.052;2022-11-15T00:03:43;24.25;;;12.50;;
40959;SDS011;27842;52.272;8.052;2022-11-15T00:06:09;21.55;;;11.35;;
40959;SDS011;27842;52.272;8.052;2022-11-15T00:08:35;24.75;;;12.45;;
40959;SDS011;27842;52.272;8.052;2022-11-15T00:11:01;20.08;;;10.88;;
40959;SDS011;27842;52.272;8.052;2022-11-15T00:13:27;20.70;;;10.63;;
40959;SDS011;27842;52.272;8.052;2022-11-15T00:15:56;21.48;;;11.38;;
40959;SDS011;27842;52.272;8.052;2022-11-15T00:18:23;20.40;;;10.98;;
40959;SDS011;27842;52.272;8.052;2022-11-15T00:20:48;21.17;;;10.10;;
40959;SDS011;27842;52.272;8.052;2022-11-15T00:23:14;20.00;;;10.18;;
40959;SDS011;27842;52.272;8.052;2022-11-15T00:25:40;21.40;;;10.48;;
40959;SDS011;27842;52.272;8.052;2022-11-15T00:28:05;18.58;;;9.82;;
40959;SDS011;27842;52.272;8.052;2022-11-15T00:30:31;19.90;;;10.68;;
40959;SDS011;27842;52.272;8.052;2022-11-15T00:33:00;21.63;;;10.27;;
40959;SDS011;27842;52.272;8.052;2022-11-15T00:35:33;19.90;;;10.48;;
40959;SDS011;27842;52.272;8.052;2022-11-15T00:37:59;22.48;;;10.52;;
40959;SDS011;27842;52.272;8.052;2022-11-15T00:40:25;21.20;;;11.02;;
40959;SDS011;27842;52.272;8.052;2022-11-15T00:42:51;22.38;;;10.95;;
40959;SDS011;27842;52.272;8.052;2022-11-15T00:45:17;23.75;;;11.38;;
40959;SDS011;27842;52.272;8.052;2022-11-15T00:47:46;25.90;;;11.77;;
40959;SDS011;27842;52.272;8.052;2022-11-15T00:50:12;23.67;;;11.02;;
40959;SDS011;27842;52.272;8.052;2022-11-15T00:52:38;27.48;;;11.20;;
40959;SDS011;27842;52.272;8.052;2022-11-15T00:55:04;22.88;;;10.57;;
40959;SDS011;27842;52.272;8.052;2022-11-15T00:57:30;26.77;;;11.18;;
40959;SDS011;27842;52.272;8.052;2022-11-15T00:59:55;24.73;;;11.27;;
40959;SDS011;27842;52.272;8.052;2022-11-15T01:02:21;23.45;;;10.23;;
40959;SDS011;27842;52.272;8.052;2022-11-15T01:04:47;24.42;;;11.68;;
40959;SDS011;27842;52.272;8.052;2022-11-15T01:07:13;22.23;;;10.95;;
40959;SDS011;27842;52.272;8.052;2022-11-15T01:09:38;20.38;;;10.18;;
40959;SDS011;27842;52.272;8.052;2022-11-15T01:12:04;20.02;;;9.85;;
40959;SDS011;27842;52.272;8.052;2022-11-15T01:14:30;20.80;;;9.73;;
40959;SDS011;27842;52.272;8.052;2022-11-15T01:16:55;18.77;;;9.25;;
40959;SDS011;27842;52.272;8.052;2022-11-15T01:19:21;21.42;;;9.43;;
40959;SDS011;27842;52.272;8.052;2022-11-15T01:21:50;18.67;;;9.02;;
40959;SDS011;27842;52.272;8.052;2022-11-15T01:24:15;19.08;;;9.63;;
40959;SDS011;27842;52.272;8.052;2022-11-15T01:26:41;17.30;;;8.48;;
40959;SDS011;27842;52.272;8.052;2022-11-15T01:29:07;19.95;;;8.85;;
40959;SDS011;27842;52.272;8.052;2022-11-15T01:31:32;18.40;;;8.60;;
40959;SDS011;27842;52.272;8.052;2022-11-15T01:33:58;20.88;;;9.57;;
40959;SDS011;27842;52.272;8.052;2022-11-15T01:36:23;19.88;;;8.93;;
40959;SDS011;27842;52.272;8.052;2022-11-15T01:38:53;17.70;;;8.63;;
40959;SDS011;27842;52.272;8.052;2022-11-15T01:41:20;19.58;;;8.88;;
40959;SDS011;27842;52.272;8.052;2022-11-15T01:43:51;19.27;;;8.27;;
40959;SDS011;27842;52.272;8.052;2022-11-15T01:46:34;18.30;;;8.50;;
40959;SDS011;27842;52.272;8.052;2022-11-15T01:49:02;18.60;;;9.20;;
40959;SDS011;27842;52.272;8.052;2022-11-15T01:51:35;19.58;;;9.00;;
40959;SDS011;27842;52.272;8.052;2022-11-15T01:54:03;17.50;;;8.65;;
40959;SDS011;27842;52.272;8.052;2022-11-15T01:56:33;17.83;;;8.63;;
40959;SDS011;27842;52.272;8.052;2022-11-15T01:59:05;18.55;;;8.88;;
40959;SDS011;27842;52.272;8.052;2022-11-15T02:01:32;17.63;;;8.30;;
40959;SDS011;27842;52.272;8.052;2022-11-15T02:04:01;15.98;;;8.10;;
40959;SDS011;27842;52.272;8.052;2022-11-15T02:06:41;18.75;;;8.57;;
40959;SDS011;27842;52.272;8.052;2022-11-15T02:09:09;18.58;;;8.93;;
40959;SDS011;27842;52.272;8.052;2022-11-15T02:11:35;19.10;;;9.32;;
40959;SDS011;27842;52.272;8.052;2022-11-15T02:14:01;17.98;;;8.70;;
40959;SDS011;27842;52.272;8.052;2022-11-15T02:24:45;19.55;;;8.73;;
40959;SDS011;27842;52.272;8.052;2022-11-15T02:30:19;17.30;;;8.23;;
40959;SDS011;27842;52.272;8.052;2022-11-15T02:35:43;18.83;;;8.95;;
40959;SDS011;27842;52.272;8.052;2022-11-15T02:38:34;17.08;;;8.05;;
40959;SDS011;27842;52.272;8.052;2022-11-15T02:41:22;20.30;;;8.45;;
40959;SDS011;27842;52.272;8.052;2022-11-15T02:49:43;19.38;;;8.45;;
40959;SDS011;27842;52.272;8.052;2022-11-15T02:52:15;18.27;;;7.78;;
40959;SDS011;27842;52.272;8.052;2022-11-15T02:54:42;17.77;;;8.48;;
40959;SDS011;27842;52.272;8.052;2022-11-15T02:57:12;17.30;;;8.85;;
40959;SDS011;27842;52.272;8.052;2022-11-15T02:59:52;17.77;;;8.05;;
40959;SDS011;27842;52.272;8.052;2022-11-15T03:02:27;18.90;;;8.25;;
40959;SDS011;27842;52.272;8.052;2022-11-15T03:05:29;17.15;;;7.95;;
40959;SDS011;27842;52.272;8.052;2022-11-15T03:18:41;18.23;;;8.23;;
40959;SDS011;27842;52.272;8.052;2022-11-15T03:21:14;18.48;;;8.25;;
40959;SDS011;27842;52.272;8.052;2022-11-15T03:23:43;19.52;;;8.00;;
40959;SDS011;27842;52.272;8.052;2022-11-15T03:26:11;16.60;;;7.88;;
40959;SDS011;27842;52.272;8.052;2022-11-15T03:28:45;17.42;;;7.57;;
40959;SDS011;27842;52.272;8.052;2022-11-15T03:31:13;18.35;;;8.02;;
40959;SDS011;27842;52.272;8.052;2022-11-15T03:34:00;17.05;;;7.63;;
40959;SDS011;27842;52.272;8.052;2022-11-15T03:36:28;18.33;;;7.93;;
40959;SDS011;27842;52.272;8.052;2022-11-15T03:38:58;17.73;;;7.90;;
40959;SDS011;27842;52.272;8.052;2022-11-15T03:42:17;16.40;;;7.57;;
40959;SDS011;27842;52.272;8.052;2022-11-15T03:44:31;18.42;;;8.88;;
40959;SDS011;27842;52.272;8.052;2022-11-15T03:47:20;19.05;;;8.15;;
40959;SDS011;27842;52.272;8.052;2022-11-15T03:49:55;17.98;;;8.50;;
40959;SDS011;27842;52.272;8.052;2022-11-15T03:52:30;19.30;;;8.32;;
40959;SDS011;27842;52.272;8.052;2022-11-15T03:54:58;19.90;;;8.35;;
40959;SDS011;27842;52.272;8.052;2022-11-15T03:57:25;20.25;;;8.10;;
40959;SDS011;27842;52.272;8.052;2022-11-15T03:59:51;18.73;;;9.23;;
40959;SDS011;27842;52.272;8.052;2022-11-15T04:02:17;18.60;;;8.15;;
40959;SDS011;27842;52.272;8.052;2022-11-15T04:04:42;17.48;;;8.35;;
40959;SDS011;27842;52.272;8.052;2022-11-15T04:07:08;19.38;;;9.48;;
40959;SDS011;27842;52.272;8.052;2022-11-15T04:09:33;18.75;;;8.73;;
40959;SDS011;27842;52.272;8.052;2022-11-15T04:12:19;18.92;;;8.13;;
40959;SDS011;27842;52.272;8.052;2022-11-15T04:14:55;19.33;;;8.45;;
40959;SDS011;27842;52.272;8.052;2022-11-15T04:17:33;18.05;;;8.90;;
40959;SDS011;27842;52.272;8.052;2022-11-15T04:20:00;17.67;;;8.23;;
40959;SDS011;27842;52.272;8.052;2022-11-15T04:22:46;19.15;;;8.50;;
40959;SDS011;27842;52.272;8.052;2022-11-15T04:25:30;19.23;;;8.50;;
40959;SDS011;27842;52.272;8.052;2022-11-15T04:27:55;17.73;;;8.30;;
40959;SDS011;27842;52.272;8.052;2022-11-15T04:30:21;18.70;;;9.13;;
40959;SDS011;27842;52.272;8.052;2022-11-15T04:32:46;19.20;;;8.68;;
40959;SDS011;27842;52.272;8.052;2022-11-15T04:35:12;18.38;;;8.30;;
40959;SDS011;27842;52.272;8.052;2022-11-15T04:37:38;19.10;;;8.85;;
40959;SDS011;27842;52.272;8.052;2022-11-15T04:40:03;19.70;;;8.82;;
40959;SDS011;27842;52.272;8.052;2022-11-15T04:42:29;17.95;;;8.48;;
40959;SDS011;27842;52.272;8.052;2022-11-15T04:44:55;18.52;;;8.63;;
40959;SDS011;27842;52.272;8.052;2022-11-15T04:47:21;17.25;;;8.00;;
40959;SDS011;27842;52.272;8.052;2022-11-15T04:49:46;19.48;;;8.10;;
40959;SDS011;27842;52.272;8.052;2022-11-15T04:52:12;19.80;;;9.80;;
40959;SDS011;27842;52.272;8.052;2022-11-15T04:54:37;22.42;;;9.27;;
40959;SDS011;27842;52.272;8.052;2022-11-15T04:57:03;19.50;;;9.07;;
40959;SDS011;27842;52.272;8.052;2022-11-15T04:59:29;21.38;;;10.93;;
40959;SDS011;27842;52.272;8.052;2022-11-15T05:01:54;18.85;;;8.75;;
40959;SDS011;27842;52.272;8.052;2022-11-15T05:04:20;18.40;;;8.60;;
40959;SDS011;27842;52.272;8.052;2022-11-15T05:06:48;18.98;;;8.60;;
40959;SDS011;27842;52.272;8.052;2022-11-15T05:09:16;19.67;;;8.85;;
40959;SDS011;27842;52.272;8.052;2022-11-15T05:11:44;21.38;;;8.52;;
40959;SDS011;27842;52.272;8.052;2022-11-15T05:14:10;18.77;;;8.70;;
40959;SDS011;27842;52.272;8.052;2022-11-15T05:16:36;21.45;;;8.95;;
40959;SDS011;27842;52.272;8.052;2022-11-15T05:19:02;19.05;;;8.57;;
40959;SDS011;27842;52.272;8.052;2022-11-15T05:21:28;19.33;;;8.68;;
40959;SDS011;27842;52.272;8.052;2022-11-15T05:23:54;17.65;;;8.02;;
40959;SDS011;27842;52.272;8.052;2022-11-15T05:26:19;18.92;;;8.88;;
40959;SDS011;27842;52.272;8.052;2022-11-15T05:28:45;20.58;;;8.57;;
40959;SDS011;27842;52.272;8.052;2022-11-15T05:31:14;18.70;;;7.65;;
40959;SDS011;27842;52.272;8.052;2022-11-15T05:33:41;17.95;;;8.70;;
40959;SDS011;27842;52.272;8.052;2022-11-15T05:36:31;17.17;;;8.05;;
40959;SDS011;27842;52.272;8.052;2022-11-15T05:39:00;19.75;;;9.10;;
40959;SDS011;27842;52.272;8.052;2022-11-15T05:41:31;20.05;;;8.98;;
40959;SDS011;27842;52.272;8.052;2022-11-15T05:44:04;19.63;;;8.43;;
40959;SDS011;27842;52.272;8.052;2022-11-15T05:46:32;22.50;;;8.85;;
40959;SDS011;27842;52.272;8.052;2022-11-15T05:48:59;17.30;;;8.55;;
40959;SDS011;27842;52.272;8.052;2022-11-15T05:51:25;20.15;;;7.82;;
40959;SDS011;27842;52.272;8.052;2022-11-15T05:53:53;19.38;;;9.02;;
40959;SDS011;27842;52.272;8.052;2022-11-15T05:56:21;19.58;;;8.57;;
40959;SDS011;27842;52.272;8.052;2022-11-15T05:58:47;21.08;;;9.63;;
40959;SDS011;27842;52.272;8.052;2022-11-15T06:01:14;20.85;;;10.07;;
40959;SDS011;27842;52.272;8.052;2022-11-15T06:03:40;19.70;;;9.88;;
40959;SDS011;27842;52.272;8.052;2022-11-15T06:06:05;19.88;;;8.80;;
40959;SDS011;27842;52.272;8.052;2022-11-15T06:08:31;20.77;;;8.85;;
40959;SDS011;27842;52.272;8.052;2022-11-15T06:10:56;18.83;;;8.50;;
40959;SDS011;27842;52.272;8.052;2022-11-15T06:13:28;18.08;;;8.48;;
40959;SDS011;27842;52.272;8.052;2022-11-15T06:15:55;18.80;;;8.60;;
40959;SDS011;27842;52.272;8.052;2022-11-15T06:18:21;18.30;;;8.93;;
40959;SDS011;27842;52.272;8.052;2022-11-15T06:20:47;18.35;;;8.82;;
40959;SDS011;27842;52.272;8.052;2022-11-15T06:23:13;22.73;;;8.90;;
40959;SDS011;27842;52.272;8.052;2022-11-15T06:25:38;19.17;;;9.38;;
40959;SDS011;27842;52.272;8.052;2022-11-15T06:28:04;18.23;;;9.13;;
40959;SDS011;27842;52.272;8.052;2022-11-15T06:30:29;22.08;;;9.70;;
40959;SDS011;27842;52.272;8.052;2022-11-15T06:33:02;19.17;;;8.68;;
40959;SDS011;27842;52.272;8.052;2022-11-15T06:35:30;18.88;;;9.05;;
40959;SDS011;27842;52.272;8.052;2022-11-15T06:38:01;17.45;;;8.00;;
40959;SDS011;27842;52.272;8.052;2022-11-15T06:40:28;17.58;;;8.43;;
40959;SDS011;27842;52.272;8.052;2022-11-15T06:43:00;25.20;;;8.40;;
40959;SDS011;27842;52.272;8.052;2022-11-15T06:45:26;19.77;;;8.02;;
40959;SDS011;27842;52.272;8.052;2022-11-15T06:47:52;18.92;;;8.05;;
40959;SDS011;27842;52.272;8.052;2022-11-15T06:50:18;23.55;;;9.20;;
40959;SDS011;27842;52.272;8.052;2022-11-15T06:52:44;21.33;;;9.02;;
40959;SDS011;27842;52.272;8.052;2022-11-15T06:55:09;18.95;;;8.40;;
40959;SDS011;27842;52.272;8.052;2022-11-15T06:57:36;19.20;;;8.48;;
40959;SDS011;27842;52.272;8.052;2022-11-15T07:00:05;19.23;;;9.80;;
40959;SDS011;27842;52.272;8.052;2022-11-15T07:02:31;21.35;;;9.52;;
40959;SDS011;27842;52.272;8.052;2022-11-15T07:04:56;19.15;;;9.38;;
40959;SDS011;27842;52.272;8.052;2022-11-15T07:07:22;20.90;;;9.95;;
40959;SDS011;27842;52.272;8.052;2022-11-15T07:09:48;21.58;;;9.10;;
40959;SDS011;27842;52.272;8.052;2022-11-15T07:12:13;18.67;;;8.68;;
40959;SDS011;27842;52.272;8.052;2022-11-15T07:14:39;19.77;;;9.05;;
40959;SDS011;27842;52.272;8.052;2022-11-15T07:17:05;17.27;;;8.77;;
40959;SDS011;27842;52.272;8.052;2022-11-15T07:19:30;21.00;;;9.20;;
40959;SDS011;27842;52.272;8.052;2022-11-15T07:21:57;17.77;;;8.82;;
40959;SDS011;27842;52.272;8.052;2022-11-15T07:24:22;18.33;;;8.95;;
40959;SDS011;27842;52.272;8.052;2022-11-15T07:26:48;19.95;;;9.00;;
40959;SDS011;27842;52.272;8.052;2022-11-15T07:29:13;20.20;;;9.50;;
40959;SDS011;27842;52.272;8.052;2022-11-15T07:31:39;19.85;;;9.00;;
40959;SDS011;27842;52.272;8.052;2022-11-15T07:34:05;19.75;;;9.13;;
40959;SDS011;27842;52.272;8.052;2022-11-15T07:36:30;18.08;;;9.30;;
40959;SDS011;27842;52.272;8.052;2022-11-15T07:38:56;17.90;;;9.07;;
40959;SDS011;27842;52.272;8.052;2022-11-15T07:41:21;19.38;;;9.13;;
40959;SDS011;27842;52.272;8.052;2022-11-15T07:43:50;20.65;;;9.95;;
40959;SDS011;27842;52.272;8.052;2022-11-15T07:46:16;18.70;;;8.65;;
40959;SDS011;27842;52.272;8.052;2022-11-15T07:48:42;18.60;;;8.50;;
40959;SDS011;27842;52.272;8.052;2022-11-15T07:51:10;17.23;;;9.02;;
40959;SDS011;27842;52.272;8.052;2022-11-15T07:53:39;18.67;;;8.27;;
40959;SDS011;27842;52.272;8.052;2022-11-15T07:56:06;17.52;;;8.23;;
40959;SDS011;27842;52.272;8.052;2022-11-15T07:58:32;17.75;;;8.82;;
40959;SDS011;27842;52.272;8.052;2022-11-15T08:00:58;17.27;;;8.55;;
40959;SDS011;27842;52.272;8.052;2022-11-15T08:03:27;18.20;;;9.20;;
40959;SDS011;27842;52.272;8.052;2022-11-15T08:05:55;18.00;;;8.70;;
40959;SDS011;27842;52.272;8.052;2022-11-15T08:08:21;15.40;;;8.38;;
40959;SDS011;27842;52.272;8.052;2022-11-15T08:10:47;17.00;;;8.52;;
40959;SDS011;27842;52.272;8.052;2022-11-15T08:13:13;17.05;;;9.07;;
40959;SDS011;27842;52.272;8.052;2022-11-15T08:15:39;18.50;;;8.70;;
40959;SDS011;27842;52.272;8.052;2022-11-15T08:18:06;17.65;;;8.20;;
40959;SDS011;27842;52.272;8.052;2022-11-15T08:20:34;19.52;;;8.75;;
40959;SDS011;27842;52.272;8.052;2022-11-15T08:23:02;16.98;;;7.85;;
40959;SDS011;27842;52.272;8.052;2022-11-15T08:25:29;18.23;;;8.48;;
40959;SDS011;27842;52.272;8.052;2022-11-15T08:27:57;19.02;;;8.20;;
40959;SDS011;27842;52.272;8.052;2022-11-15T08:30:28;16.08;;;7.53;;
40959;SDS011;27842;52.272;8.052;2022-11-15T08:32:56;18.92;;;8.05;;
40959;SDS011;27842;52.272;8.052;2022-11-15T08:35:22;16.80;;;7.78;;
40959;SDS011;27842;52.272;8.052;2022-11-15T08:37:48;19.05;;;7.97;;
40959;SDS011;27842;52.272;8.052;2022-11-15T08:40:14;18.02;;;8.23;;
40959;SDS011;27842;52.272;8.052;2022-11-15T08:42:40;16.30;;;7.07;;
40959;SDS011;27842;52.272;8.052;2022-11-15T08:45:07;15.35;;;7.38;;
40959;SDS011;27842;52.272;8.052;2022-11-15T08:47:33;18.88;;;8.13;;
40959;SDS011;27842;52.272;8.052;2022-11-15T08:49:59;15.95;;;7.15;;
40959;SDS011;27842;52.272;8.052;2022-11-15T08:52:25;16.58;;;7.20;;
40959;SDS011;27842;52.272;8.052;2022-11-15T08:54:51;16.02;;;7.18;;
40959;SDS011;27842;52.272;8.052;2022-11-15T08:57:16;15.00;;;6.57;;
40959;SDS011;27842;52.272;8.052;2022-11-15T08:59:42;14.88;;;6.60;;
40959;SDS011;27842;52.272;8.052;2022-11-15T09:02:12;14.52;;;6.28;;
40959;SDS011;27842;52.272;8.052;2022-11-15T09:04:42;17.05;;;6.72;;
40959;SDS011;27842;52.272;8.052;2022-11-15T09:07:09;16.27;;;6.68;;
40959;SDS011;27842;52.272;8.052;2022-11-15T09:09:35;14.93;;;6.60;;
40959;SDS011;27842;52.272;8.052;2022-11-15T09:12:02;16.33;;;6.88;;
40959;SDS011;27842;52.272;8.052;2022-11-15T09:14:28;16.10;;;6.72;;
40959;SDS011;27842;52.272;8.052;2022-11-15T09:16:54;14.00;;;6.22;;
40959;SDS011;27842;52.272;8.052;2022-11-15T09:19:20;14.18;;;5.60;;
40959;SDS011;27842;52.272;8.052;2022-11-15T09:21:46;17.05;;;6.03;;
40959;SDS011;27842;52.272;8.052;2022-11-15T09:24:11;14.63;;;5.97;;
40959;SDS011;27842;52.272;8.052;2022-11-15T09:26:37;14.18;;;5.80;;
40959;SDS011;27842;52.272;8.052;2022-11-15T09:29:03;14.35;;;6.03;;
40959;SDS011;27842;52.272;8.052;2022-11-15T09:31:28;13.52;;;5.38;;
40959;SDS011;27842;52.272;8.052;2022-11-15T09:33:54;13.82;;;5.70;;
40959;SDS011;27842;52.272;8.052;2022-11-15T09:36:20;12.65;;;5.43;;
40959;SDS011;27842;52.272;8.052;2022-11-15T09:38:46;15.93;;;5.38;;
40959;SDS011;27842;52.272;8.052;2022-11-15T09:49:06;15.68;;;4.88;;
40959;SDS011;27842;52.272;8.052;2022-11-15T09:51:37;13.20;;;4.60;;
40959;SDS011;27842;52.272;8.052;2022-11-15T09:56:43;14.73;;;4.30;;
40959;SDS011;27842;52.272;8.052;2022-11-15T10:05:11;9.90;;;3.92;;
40959;SDS011;27842;52.272;8.052;2022-11-15T10:07:46;14.63;;;4.07;;
40959;SDS011;27842;52.272;8.052;2022-11-15T10:10:27;12.77;;;3.92;;
40959;SDS011;27842;52.272;8.052;2022-11-15T10:13:00;11.00;;;3.70;;
40959;SDS011;27842;52.272;8.052;2022-11-15T10:15:27;8.68;;;3.08;;
40959;SDS011;27842;52.272;8.052;2022-11-15T10:21:02;16.45;;;3.35;;
40959;SDS011;27842;52.272;8.052;2022-11-15T10:23:41;5.38;;;2.55;;
40959;SDS011;27842;52.272;8.052;2022-11-15T10:26:08;21.35;;;2.85;;
40959;SDS011;27842;52.272;8.052;2022-11-15T10:28:37;6.07;;;2.42;;
40959;SDS011;27842;52.272;8.052;2022-11-15T10:31:10;9.02;;;2.40;;
40959;SDS011;27842;52.272;8.052;2022-11-15T10:33:50;7.75;;;2.30;;
40959;SDS011;27842;52.272;8.052;2022-11-15T10:36:20;9.23;;;2.10;;
40959;SDS011;27842;52.272;8.052;2022-11-15T10:41:18;5.70;;;1.80;;
40959;SDS011;27842;52.272;8.052;2022-11-15T10:43:44;5.47;;;2.03;;
40959;SDS011;27842;52.272;8.052;2022-11-15T10:46:20;4.18;;;1.90;;
40959;SDS011;27842;52.272;8.052;2022-11-15T10:48:47;5.63;;;1.77;;
40959;SDS011;27842;52.272;8.052;2022-11-15T10:51:27;6.65;;;2.15;;
40959;SDS011;27842;52.272;8.052;2022-11-15T10:53:57;12.52;;;2.60;;
40959;SDS011;27842;52.272;8.052;2022-11-15T10:56:26;7.38;;;2.20;;
40959;SDS011;27842;52.272;8.052;2022-11-15T10:58:53;9.50;;;1.92;;
40959;SDS011;27842;52.272;8.052;2022-11-15T11:01:25;16.48;;;2.45;;
40959;SDS011;27842;52.272;8.052;2022-11-15T11:04:07;5.78;;;1.80;;
40959;SDS011;27842;52.272;8.052;2022-11-15T11:09:23;6.32;;;2.08;;
40959;SDS011;27842;52.272;8.052;2022-11-15T11:11:58;6.18;;;2.13;;
40959;SDS011;27842;52.272;8.052;2022-11-15T11:14:35;4.72;;;1.90;;
40959;SDS011;27842;52.272;8.052;2022-11-15T11:17:06;5.63;;;2.05;;
40959;SDS011;27842;52.272;8.052;2022-11-15T11:22:54;7.65;;;1.98;;
40959;SDS011;27842;52.272;8.052;2022-11-15T11:25:30;14.15;;;5.03;;
40959;SDS011;27842;52.272;8.052;2022-11-15T11:36:30;3.30;;;1.58;;
40959;SDS011;27842;52.272;8.052;2022-11-15T11:42:13;8.95;;;1.63;;
40959;SDS011;27842;52.272;8.052;2022-11-15T11:47:24;4.90;;;1.95;;
40959;SDS011;27842;52.272;8.052;2022-11-15T11:50:12;12.50;;;2.20;;
40959;SDS011;27842;52.272;8.052;2022-11-15T11:53:01;12.48;;;1.85;;
40959;SDS011;27842;52.272;8.052;2022-11-15T11:55:46;11.20;;;2.13;;
40959;SDS011;27842;52.272;8.052;2022-11-15T11:58:20;8.55;;;1.70;;
40959;SDS011;27842;52.272;8.052;2022-11-15T12:00:52;13.00;;;1.70;;
40959;SDS011;27842;52.272;8.052;2022-11-15T12:06:20;11.70;;;2.10;;
40959;SDS011;27842;52.272;8.052;2022-11-15T12:09:11;16.73;;;2.40;;
40959;SDS011;27842;52.272;8.052;2022-11-15T12:11:55;11.13;;;1.70;;
40959;SDS011;27842;52.272;8.052;2022-11-15T12:17:35;6.85;;;1.73;;
40959;SDS011;27842;52.272;8.052;2022-11-15T12:20:36;12.40;;;1.67;;
40959;SDS011;27842;52.272;8.052;2022-11-15T12:26:07;3.70;;;1.42;;
40959;SDS011;27842;52.272;8.052;2022-11-15T12:28:47;9.18;;;2.10;;
40959;SDS011;27842;52.272;8.052;2022-11-15T12:31:40;7.55;;;1.58;;
40959;SDS011;27842;52.272;8.052;2022-11-15T12:36:47;7.35;;;1.30;;
40959;SDS011;27842;52.272;8.052;2022-11-15T12:39:15;6.18;;;1.30;;
40959;SDS011;27842;52.272;8.052;2022-11-15T12:41:44;22.75;;;2.00;;
40959;SDS011;27842;52.272;8.052;2022-11-15T13:15:37;14.30;;;2.42;;
40959;SDS011;27842;52.272;8.052;2022-11-15T13:18:31;7.38;;;1.85;;
40959;SDS011;27842;52.272;8.052;2022-11-15T13:21:02;7.85;;;1.77;;
40959;SDS011;27842;52.272;8.052;2022-11-15T13:23:53;21.08;;;2.42;;
40959;SDS011;27842;52.272;8.052;2022-11-15T13:26:20;3.65;;;1.42;;
40959;SDS011;27842;52.272;8.052;2022-11-15T13:28:47;8.68;;;1.60;;
40959;SDS011;27842;52.272;8.052;2022-11-15T13:31:30;8.35;;;1.60;;
40959;SDS011;27842;52.272;8.052;2022-11-15T13:34:15;4.25;;;1.70;;
40959;SDS011;27842;52.272;8.052;2022-11-15T13:37:02;8.20;;;1.80;;
40959;SDS011;27842;52.272;8.052;2022-11-15T13:41:58;5.47;;;1.67;;
40959;SDS011;27842;52.272;8.052;2022-11-15T13:44:33;5.78;;;1.73;;
40959;SDS011;27842;52.272;8.052;2022-11-15T13:47:03;4.88;;;1.77;;
40959;SDS011;27842;52.272;8.052;2022-11-15T13:49:31;4.28;;;1.77;;
40959;SDS011;27842;52.272;8.052;2022-11-15T13:51:59;4.18;;;1.92;;
40959;SDS011;27842;52.272;8.052;2022-11-15T13:55:13;7.50;;;2.05;;
40959;SDS011;27842;52.272;8.052;2022-11-15T13:57:20;4.43;;;1.67;;
40959;SDS011;27842;52.272;8.052;2022-11-15T13:59:50;6.53;;;1.88;;
40959;SDS011;27842;52.272;8.052;2022-11-15T14:02:25;7.25;;;1.85;;
40959;SDS011;27842;52.272;8.052;2022-11-15T14:04:55;7.70;;;1.85;;
40959;SDS011;27842;52.272;8.052;2022-11-15T14:07:25;8.65;;;2.08;;
40959;SDS011;27842;52.272;8.052;2022-11-15T14:09:52;7.95;;;2.00;;
40959;SDS011;27842;52.272;8.052;2022-11-15T14:12:29;4.80;;;2.15;;
40959;SDS011;27842;52.272;8.052;2022-11-15T14:15:00;7.90;;;2.05;;
40959;SDS011;27842;52.272;8.052;2022-11-15T14:17:43;10.13;;;2.15;;
40959;SDS011;27842;52.272;8.052;2022-11-15T14:22:57;10.52;;;2.40;;
40959;SDS011;27842;52.272;8.052;2022-11-15T14:25:25;14.77;;;2.35;;
40959;SDS011;27842;52.272;8.052;2022-11-15T14:30:40;5.70;;;2.20;;
40959;SDS011;27842;52.272;8.052;2022-11-15T14:33:41;6.20;;;1.77;;
40959;SDS011;27842;52.272;8.052;2022-11-15T14:38:40;8.70;;;2.10;;
40959;SDS011;27842;52.272;8.052;2022-11-15T14:41:17;9.05;;;2.28;;
40959;SDS011;27842;52.272;8.052;2022-11-15T14:43:47;5.78;;;2.00;;
40959;SDS011;27842;52.272;8.052;2022-11-15T14:46:13;6.85;;;1.85;;
40959;SDS011;27842;52.272;8.052;2022-11-15T14:48:39;11.25;;;3.13;;
40959;SDS011;27842;52.272;8.052;2022-11-15T14:51:15;7.13;;;1.92;;
40959;SDS011;27842;52.272;8.052;2022-11-15T14:53:42;5.65;;;2.05;;
40959;SDS011;27842;52.272;8.052;2022-11-15T14:56:09;6.00;;;2.08;;
40959;SDS011;27842;52.272;8.052;2022-11-15T14:58:35;6.22;;;2.17;;
40959;SDS011;27842;52.272;8.052;2022-11-15T15:01:02;4.38;;;2.10;;
40959;SDS011;27842;52.272;8.052;2022-11-15T15:03:38;5.75;;;2.28;;
40959;SDS011;27842;52.272;8.052;2022-11-15T15:06:04;6.38;;;1.90;;
40959;SDS011;27842;52.272;8.052;2022-11-15T15:08:30;4.57;;;1.88;;
40959;SDS011;27842;52.272;8.052;2022-11-15T15:10:56;6.75;;;2.03;;
40959;SDS011;27842;52.272;8.052;2022-11-15T15:13:22;4.80;;;2.30;;
40959;SDS011;27842;52.272;8.052;2022-11-15T15:15:49;4.22;;;2.13;;
40959;SDS011;27842;52.272;8.052;2022-11-15T15:18:16;7.35;;;1.98;;
40959;SDS011;27842;52.272;8.052;2022-11-15T15:20:43;6.88;;;2.25;;
40959;SDS011;27842;52.272;8.052;2022-11-15T15:23:17;5.38;;;2.10;;
40959;SDS011;27842;52.272;8.052;2022-11-15T15:25:44;5.35;;;2.33;;
40959;SDS011;27842;52.272;8.052;2022-11-15T15:28:12;5.57;;;2.30;;
40959;SDS011;27842;52.272;8.052;2022-11-15T15:30:38;8.95;;;2.15;;
40959;SDS011;27842;52.272;8.052;2022-11-15T15:33:04;7.57;;;2.33;;
40959;SDS011;27842;52.272;8.052;2022-11-15T15:35:31;7.45;;;2.17;;
40959;SDS011;27842;52.272;8.052;2022-11-15T15:37:58;9.40;;;2.28;;
40959;SDS011;27842;52.272;8.052;2022-11-15T15:40:25;9.27;;;2.53;;
40959;SDS011;27842;52.272;8.052;2022-11-15T15:42:52;6.63;;;2.13;;
40959;SDS011;27842;52.272;8.052;2022-11-15T15:45:18;9.85;;;2.67;;
40959;SDS011;27842;52.272;8.052;2022-11-15T15:47:44;8.05;;;2.75;;
40959;SDS011;27842;52.272;8.052;2022-11-15T15:50:24;10.63;;;2.65;;
40959;SDS011;27842;52.272;8.052;2022-11-15T15:52:51;10.65;;;3.25;;
40959;SDS011;27842;52.272;8.052;2022-11-15T15:55:19;6.63;;;2.80;;
40959;SDS011;27842;52.272;8.052;2022-11-15T15:57:45;10.85;;;3.05;;
40959;SDS011;27842;52.272;8.052;2022-11-15T16:00:11;15.55;;;3.67;;
40959;SDS011;27842;52.272;8.052;2022-11-15T16:02:37;9.60;;;3.28;;
40959;SDS011;27842;52.272;8.052;2022-11-15T16:05:03;11.00;;;3.25;;
40959;SDS011;27842;52.272;8.052;2022-11-15T16:07:30;9.65;;;3.75;;
40959;SDS011;27842;52.272;8.052;2022-11-15T16:09:55;13.30;;;4.05;;
40959;SDS011;27842;52.272;8.052;2022-11-15T16:12:28;13.63;;;3.83;;
40959;SDS011;27842;52.272;8.052;2022-11-15T16:14:58;11.77;;;4.35;;
40959;SDS011;27842;52.272;8.052;2022-11-15T16:17:31;13.07;;;4.00;;
40959;SDS011;27842;52.272;8.052;2022-11-15T16:19:59;15.73;;;4.85;;
40959;SDS011;27842;52.272;8.052;2022-11-15T16:22:25;14.38;;;4.78;;
40959;SDS011;27842;52.272;8.052;2022-11-15T16:24:51;13.02;;;4.47;;
40959;SDS011;27842;52.272;8.052;2022-11-15T16:27:18;13.02;;;4.22;;
40959;SDS011;27842;52.272;8.052;2022-11-15T16:29:45;12.38;;;3.63;;
40959;SDS011;27842;52.272;8.052;2022-11-15T16:32:11;13.43;;;3.80;;
40959;SDS011;27842;52.272;8.052;2022-11-15T16:34:37;11.13;;;3.40;;
40959;SDS011;27842;52.272;8.052;2022-11-15T16:37:03;13.02;;;3.47;;
40959;SDS011;27842;52.272;8.052;2022-11-15T16:39:29;11.35;;;3.00;;
40959;SDS011;27842;52.272;8.052;2022-11-15T16:41:56;9.50;;;3.00;;
40959;SDS011;27842;52.272;8.052;2022-11-15T16:44:23;7.93;;;3.00;;
40959;SDS011;27842;52.272;8.052;2022-11-15T16:46:49;8.32;;;3.05;;
40959;SDS011;27842;52.272;8.052;2022-11-15T16:49:16;7.53;;;2.80;;
40959;SDS011;27842;52.272;8.052;2022-11-15T16:51:44;10.40;;;2.85;;
40959;SDS011;27842;52.272;8.052;2022-11-15T16:54:12;8.48;;;2.60;;
40959;SDS011;27842;52.272;8.052;2022-11-15T16:56:38;8.32;;;2.55;;